createdAt,value
2018-11-06T00:00:32.379Z,10.85
2018-11-06T00:01:32.127Z,10.84
2018-11-06T00:02:47.080Z,10.88
2018-11-06T00:03:32.414Z,10.86
2018-11-06T00:04:32.459Z,10.91
2018-11-06T00:05:32.470Z,10.88
2018-11-06T00:06:32.470Z,10.91
2018-11-06T00:07:32.522Z,10.88
2018-11-06T00:08:32.533Z,10.94
2018-11-06T00:09:32.700Z,10.91
2018-11-06T00:10:47.210Z,10.85
2018-11-06T00:11:32.590Z,10.74
2018-11-06T00:12:32.615Z,10.73
2018-11-06T00:14:32.387Z,10.74
2018-11-06T00:15:32.391Z,10.88
2018-11-06T00:16:32.689Z,10.89
2018-11-06T00:17:32.418Z,10.96
2018-11-06T00:18:32.696Z,10.88
2018-11-06T00:19:32.461Z,10.88
2018-11-06T00:20:32.766Z,10.88
2018-11-06T00:21:47.424Z,10.76
2018-11-06T00:22:32.774Z,10.76
2018-11-06T00:23:32.813Z,10.73
2018-11-06T00:24:32.804Z,10.7
2018-11-06T00:25:32.855Z,10.76
2018-11-06T00:26:32.870Z,10.76
2018-11-06T00:27:32.889Z,10.73
2018-11-06T00:28:32.892Z,10.73
2018-11-06T00:29:32.928Z,10.64
2018-11-06T00:30:32.916Z,10.6
2018-11-06T00:31:32.967Z,10.64
2018-11-06T00:33:32.719Z,10.47
2018-11-06T00:34:32.996Z,10.51
2018-11-06T00:35:33.043Z,10.45
2018-11-06T00:36:33.030Z,10.56
2018-11-06T00:37:47.721Z,10.51
2018-11-06T00:38:47.735Z,10.59
2018-11-06T00:39:32.838Z,10.64
2018-11-06T00:40:33.097Z,10.6
2018-11-06T00:41:33.157Z,10.61
2018-11-06T00:42:47.820Z,10.53
2018-11-06T00:43:33.162Z,10.6
2018-11-06T00:44:33.305Z,10.47
2018-11-06T00:45:33.189Z,10.55
2018-11-06T00:46:33.246Z,10.55
2018-11-06T00:47:32.977Z,10.53
2018-11-06T00:49:33.378Z,10.41
2018-11-06T00:50:33.305Z,10.36
2018-11-06T00:51:33.335Z,10.38
2018-11-06T00:52:33.063Z,10.34
2018-11-06T00:53:33.369Z,10.44
2018-11-06T00:54:33.554Z,10.52
2018-11-06T00:55:33.381Z,10.52
2018-11-06T00:56:33.150Z,10.61
2018-11-06T00:57:33.183Z,10.53
2018-11-06T00:58:47.836Z,10.44
2018-11-06T00:59:33.480Z,10.51
2018-11-06T01:00:33.313Z,10.48
2018-11-06T01:01:33.254Z,10.44
2018-11-06T01:02:33.508Z,10.52
2018-11-06T01:03:33.557Z,10.53
2018-11-06T01:04:33.542Z,10.51
2018-11-06T01:05:33.314Z,10.45
2018-11-06T01:06:33.599Z,10.53
2018-11-06T01:07:33.642Z,10.44
2018-11-06T01:08:33.384Z,10.51
2018-11-06T01:09:33.640Z,10.52
2018-11-06T01:10:48.338Z,10.56
2018-11-06T01:11:33.674Z,10.45
2018-11-06T01:12:33.759Z,10.52
2018-11-06T01:13:33.739Z,10.44
2018-11-06T01:14:48.386Z,10.44
2018-11-06T01:15:33.743Z,10.51
2018-11-06T01:16:33.526Z,10.52
2018-11-06T01:17:33.571Z,10.52
2018-11-06T01:18:33.569Z,10.45
2018-11-06T01:19:33.826Z,10.44
2018-11-06T01:20:33.871Z,10.52
2018-11-06T01:21:33.608Z,10.53
2018-11-06T01:22:33.633Z,10.6
2018-11-06T01:23:48.550Z,10.56
2018-11-06T01:24:33.667Z,10.64
2018-11-06T01:25:33.670Z,10.61
2018-11-06T01:26:33.982Z,10.66
2018-11-06T01:27:33.712Z,10.66
2018-11-06T01:28:34.017Z,10.63
2018-11-06T01:30:48.702Z,10.36
2018-11-06T01:31:33.780Z,10.51
2018-11-06T01:32:34.160Z,10.56
2018-11-06T01:33:33.840Z,10.53
2018-11-06T01:34:34.109Z,10.52
2018-11-06T01:35:34.143Z,10.47
2018-11-06T01:36:34.127Z,10.36
2018-11-06T01:37:33.913Z,10.45
2018-11-06T01:38:34.173Z,10.45
2018-11-06T01:39:34.217Z,10.52
2018-11-06T01:40:48.863Z,10.36
2018-11-06T01:41:33.993Z,10.33
2018-11-06T01:42:34.279Z,10.4
2018-11-06T01:44:34.044Z,10.29
2018-11-06T01:45:48.963Z,10.29
2018-11-06T01:46:34.077Z,10.25
2018-11-06T01:47:34.347Z,10.29
2018-11-06T01:48:34.124Z,10.27
2018-11-06T01:49:34.420Z,10.2
2018-11-06T01:50:34.136Z,10.3
2018-11-06T01:51:34.418Z,10.25
2018-11-06T01:52:34.460Z,10.27
2018-11-06T01:53:34.184Z,10.23
2018-11-06T01:54:34.225Z,10.2
2018-11-06T01:55:34.483Z,10.25
2018-11-06T01:56:34.530Z,10.27
2018-11-06T01:57:34.262Z,10.18
2018-11-06T01:58:34.570Z,10.08
2018-11-06T01:59:34.567Z,10.18
2018-11-06T02:00:34.606Z,10.15
2018-11-06T02:01:34.593Z,10.22
2018-11-06T02:02:34.611Z,10.14
2018-11-06T02:03:34.392Z,10.2
2018-11-06T02:04:34.649Z,10.05
2018-11-06T02:05:34.693Z,10.15
2018-11-06T02:06:34.682Z,10.17
2018-11-06T02:07:34.729Z,10.05
2018-11-06T02:08:49.476Z,10.15
2018-11-06T02:09:34.739Z,10.15
2018-11-06T02:10:34.506Z,10.2
2018-11-06T02:11:34.803Z,10.15
2018-11-06T02:12:49.469Z,10.07
2018-11-06T02:13:49.465Z,10.11
2018-11-06T02:14:34.863Z,10.25
2018-11-06T02:15:34.844Z,10.17
2018-11-06T02:16:34.611Z,10.04
2018-11-06T02:17:49.562Z,10.11
2018-11-06T02:19:34.948Z,10.12
2018-11-06T02:21:34.720Z,9.97
2018-11-06T02:22:49.638Z,9.93
2018-11-06T02:23:35.029Z,9.96
2018-11-06T02:25:35.044Z,9.9
2018-11-06T02:26:35.049Z,9.89
2018-11-06T02:27:35.062Z,9.89
2018-11-06T02:28:35.108Z,9.84
2018-11-06T02:29:35.115Z,9.84
2018-11-06T02:30:35.159Z,9.86
2018-11-06T02:31:35.138Z,9.84
2018-11-06T02:32:34.815Z,9.91
2018-11-06T02:33:49.837Z,9.89
2018-11-06T02:34:35.195Z,9.93
2018-11-06T02:35:34.965Z,9.99
2018-11-06T02:36:35.362Z,10.14
2018-11-06T02:38:35.268Z,9.99
2018-11-06T02:39:35.322Z,10.05
2018-11-06T02:40:35.302Z,9.99
2018-11-06T02:41:35.353Z,10.07
2018-11-06T02:42:35.362Z,10.04
2018-11-06T02:43:35.384Z,10.02
2018-11-06T02:44:35.410Z,10.02
2018-11-06T02:45:35.502Z,10.07
2018-11-06T02:46:35.167Z,10.05
2018-11-06T02:47:35.215Z,10.08
2018-11-06T02:48:35.451Z,10.09
2018-11-06T02:49:50.142Z,10.07
2018-11-06T02:50:35.484Z,10.12
2018-11-06T02:51:35.259Z,10.12
2018-11-06T02:52:35.671Z,10.2
2018-11-06T02:53:35.577Z,10.07
2018-11-06T02:54:35.327Z,10.12
2018-11-06T02:55:35.106Z,10.02
2018-11-06T02:56:35.618Z,10.11
2018-11-06T02:57:35.361Z,10.08
2018-11-06T02:58:35.659Z,10.07
2018-11-06T03:00:35.434Z,10.11
2018-11-06T03:01:35.713Z,10.07
2018-11-06T03:02:35.720Z,10.05
2018-11-06T03:03:35.718Z,10.07
2018-11-06T03:04:35.741Z,10.08
2018-11-06T03:05:50.433Z,9.99
2018-11-06T03:06:35.520Z,10.02
2018-11-06T03:08:35.843Z,10.07
2018-11-06T03:10:36.275Z,10.05
2018-11-06T03:11:35.865Z,10.05
2018-11-06T03:12:35.652Z,10.07
2018-11-06T03:13:35.917Z,10.05
2018-11-06T03:14:35.678Z,10.05
2018-11-06T03:15:35.435Z,9.93
2018-11-06T03:16:35.993Z,10.04
2018-11-06T03:17:36.009Z,10.11
2018-11-06T03:18:36.022Z,10.05
2018-11-06T03:19:36.032Z,10.02
2018-11-06T03:20:50.430Z,10.07
2018-11-06T03:21:50.715Z,10.08
2018-11-06T03:22:36.096Z,10.02
2018-11-06T03:23:36.085Z,10.08
2018-11-06T03:25:35.893Z,10.05
2018-11-06T03:27:50.840Z,9.97
2018-11-06T03:28:35.921Z,10.07
2018-11-06T03:29:36.214Z,10.11
2018-11-06T03:30:35.956Z,10.12
2018-11-06T03:31:35.999Z,10.05
2018-11-06T03:32:36.288Z,10.04
2018-11-06T03:33:35.756Z,9.99
2018-11-06T03:34:35.776Z,9.94
2018-11-06T03:35:36.319Z,10.12
2018-11-06T03:36:36.349Z,10.02
2018-11-06T03:37:36.335Z,10.07
2018-11-06T03:38:36.392Z,9.94
2018-11-06T03:39:35.868Z,9.99
2018-11-06T03:40:36.424Z,9.94
2018-11-06T03:41:36.152Z,10.05
2018-11-06T03:42:36.473Z,9.94
2018-11-06T03:43:51.106Z,10.02
2018-11-06T03:45:36.482Z,10.05
2018-11-06T03:46:36.509Z,9.96
2018-11-06T03:47:36.538Z,10.04
2018-11-06T03:48:36.570Z,10.05
2018-11-06T03:49:36.592Z,10.02
2018-11-06T03:50:36.580Z,10.01
2018-11-06T03:51:36.604Z,9.96
2018-11-06T03:52:51.270Z,9.91
2018-11-06T03:53:36.656Z,9.94
2018-11-06T03:54:36.387Z,9.93
2018-11-06T03:55:36.698Z,9.99
2018-11-06T03:56:36.702Z,9.93
2018-11-06T03:58:36.731Z,9.96
2018-11-06T03:59:36.731Z,9.93
2018-11-06T04:00:36.783Z,9.84
2018-11-06T04:01:36.790Z,9.86
2018-11-06T04:02:36.820Z,9.81
2018-11-06T04:03:36.809Z,9.93
2018-11-06T04:04:36.853Z,9.94
2018-11-06T04:05:36.845Z,9.93
2018-11-06T04:06:51.537Z,9.84
2018-11-06T04:07:36.640Z,9.74
2018-11-06T04:08:51.576Z,9.79
2018-11-06T04:10:51.348Z,9.74
2018-11-06T04:11:36.968Z,9.78
2018-11-06T04:12:37.003Z,9.68
2018-11-06T04:14:37.013Z,9.64
2018-11-06T04:15:36.789Z,9.61
2018-11-06T04:16:51.701Z,9.57
2018-11-06T04:17:37.067Z,9.54
2018-11-06T04:18:37.095Z,9.56
2018-11-06T04:19:36.873Z,9.53
2018-11-06T04:20:36.886Z,9.64
2018-11-06T04:21:37.144Z,9.61
2018-11-06T04:22:37.178Z,9.42
2018-11-06T04:23:37.182Z,9.47
2018-11-06T04:24:51.866Z,9.42
2018-11-06T04:25:37.203Z,9.47
2018-11-06T04:27:37.275Z,9.39
2018-11-06T04:28:37.362Z,9.4
2018-11-06T04:30:51.958Z,9.4
2018-11-06T04:31:37.347Z,9.39
2018-11-06T04:32:37.345Z,9.48
2018-11-06T04:33:37.382Z,9.43
2018-11-06T04:34:36.882Z,9.4
2018-11-06T04:35:37.389Z,9.46
2018-11-06T04:37:37.446Z,9.47
2018-11-06T04:38:37.457Z,9.48
2018-11-06T04:39:37.526Z,9.46
2018-11-06T04:40:52.129Z,9.39
2018-11-06T04:41:37.492Z,9.48
2018-11-06T04:42:37.544Z,9.38
2018-11-06T04:43:37.274Z,9.47
2018-11-06T04:44:37.578Z,9.39
2018-11-06T04:45:37.564Z,9.35
2018-11-06T04:46:37.614Z,9.38
2018-11-06T04:47:37.599Z,9.43
2018-11-06T04:48:52.277Z,9.32
2018-11-06T04:49:37.669Z,9.43
2018-11-06T04:50:37.653Z,9.38
2018-11-06T04:51:37.722Z,9.46
2018-11-06T04:52:37.724Z,9.47
2018-11-06T04:53:37.705Z,9.46
2018-11-06T04:54:37.491Z,9.38
2018-11-06T04:55:52.417Z,9.39
2018-11-06T04:56:37.501Z,9.36
2018-11-06T04:57:37.805Z,9.36
2018-11-06T04:58:37.794Z,9.26
2018-11-06T04:59:37.845Z,9.33
2018-11-06T05:00:37.827Z,9.28
2018-11-06T05:01:37.884Z,9.26
2018-11-06T05:02:37.629Z,9.33
2018-11-06T05:03:37.902Z,9.36
2018-11-06T05:04:37.902Z,9.26
2018-11-06T05:05:37.955Z,9.21
2018-11-06T05:06:37.964Z,9.26
2018-11-06T05:07:37.710Z,9.26
2018-11-06T05:08:37.970Z,9.23
2018-11-06T05:09:38.027Z,9.23
2018-11-06T05:10:38.019Z,9.11
2018-11-06T05:11:38.056Z,9.13
2018-11-06T05:12:38.040Z,9.2
2018-11-06T05:13:38.092Z,9.13
2018-11-06T05:14:37.819Z,9.18
2018-11-06T05:15:38.128Z,9.18
2018-11-06T05:16:38.117Z,9.18
2018-11-06T05:17:38.169Z,9.17
2018-11-06T05:18:38.183Z,9.05
2018-11-06T05:19:38.276Z,9.02
2018-11-06T05:20:37.939Z,9.05
2018-11-06T05:21:37.949Z,9.04
2018-11-06T05:22:38.255Z,9.05
2018-11-06T05:23:38.236Z,9.05
2018-11-06T05:24:38.289Z,8.92
2018-11-06T05:25:38.650Z,8.99
2018-11-06T05:26:38.309Z,8.96
2018-11-06T05:28:38.329Z,8.96
2018-11-06T05:29:38.376Z,8.91
2018-11-06T05:30:38.102Z,8.87
2018-11-06T05:31:38.410Z,8.92
2018-11-06T05:32:38.417Z,8.91
2018-11-06T05:33:38.170Z,8.86
2018-11-06T05:34:38.224Z,8.89
2018-11-06T05:35:38.483Z,8.8
2018-11-06T05:36:38.217Z,8.8
2018-11-06T05:37:38.568Z,8.83
2018-11-06T05:38:38.506Z,8.77
2018-11-06T05:39:38.469Z,8.83
2018-11-06T05:40:38.286Z,8.83
2018-11-06T05:41:38.354Z,8.92
2018-11-06T05:42:38.588Z,8.84
2018-11-06T05:43:53.392Z,8.89
2018-11-06T05:44:38.628Z,8.86
2018-11-06T05:45:38.969Z,8.83
2018-11-06T05:46:38.677Z,8.94
2018-11-06T05:47:38.410Z,8.91
2018-11-06T05:48:38.712Z,8.87
2018-11-06T05:49:38.796Z,8.83
2018-11-06T05:50:38.484Z,8.83
2018-11-06T05:51:38.475Z,8.87
2018-11-06T05:52:38.757Z,8.8
2018-11-06T05:53:38.783Z,8.7
2018-11-06T05:54:38.816Z,8.74
2018-11-06T05:55:38.834Z,8.74
2018-11-06T05:56:38.825Z,8.77
2018-11-06T05:57:38.854Z,8.59
2018-11-06T05:58:38.628Z,8.55
2018-11-06T05:59:53.540Z,8.63
2018-11-06T06:00:39.293Z,8.65
2018-11-06T06:01:38.919Z,8.55
2018-11-06T06:03:38.975Z,8.74
2018-11-06T06:04:38.985Z,8.83
2018-11-06T06:05:39.020Z,8.76
2018-11-06T06:06:39.014Z,8.68
2018-11-06T06:07:39.042Z,8.74
2018-11-06T06:08:53.692Z,8.68
2018-11-06T06:09:39.053Z,8.71
2018-11-06T06:10:39.200Z,8.76
2018-11-06T06:11:38.841Z,8.71
2018-11-06T06:12:39.138Z,8.83
2018-11-06T06:14:39.173Z,8.86
2018-11-06T06:16:39.361Z,8.81
2018-11-06T06:17:38.961Z,8.91
2018-11-06T06:18:39.207Z,8.89
2018-11-06T06:19:38.999Z,8.96
2018-11-06T06:20:39.272Z,8.99
2018-11-06T06:21:39.284Z,8.96
2018-11-06T06:22:39.613Z,9.01
2018-11-06T06:23:53.958Z,9.01
2018-11-06T06:24:39.346Z,9.05
2018-11-06T06:25:39.341Z,8.99
2018-11-06T06:26:39.123Z,9.1
2018-11-06T06:27:39.375Z,9.08
2018-11-06T06:28:54.218Z,9.01
2018-11-06T06:29:39.424Z,9.13
2018-11-06T06:30:54.099Z,9.08
2018-11-06T06:31:39.455Z,9.05
2018-11-06T06:32:39.225Z,9.1
2018-11-06T06:33:39.485Z,9.04
2018-11-06T06:34:39.874Z,9.04
2018-11-06T06:35:39.526Z,8.98
2018-11-06T06:36:39.550Z,8.98
2018-11-06T06:37:39.053Z,8.99
2018-11-06T06:38:39.773Z,9.02
2018-11-06T06:39:39.352Z,9.02
2018-11-06T06:41:54.296Z,9.18
2018-11-06T06:42:39.638Z,9.17
2018-11-06T06:43:39.795Z,9.26
2018-11-06T06:44:39.673Z,9.2
2018-11-06T06:45:39.449Z,9.24
2018-11-06T06:46:39.712Z,9.24
2018-11-06T06:47:39.756Z,9.32
2018-11-06T06:48:39.769Z,9.31
2018-11-06T06:49:39.782Z,9.29
2018-11-06T06:50:39.777Z,9.28
2018-11-06T06:51:39.798Z,9.39
2018-11-06T06:52:39.588Z,9.42
2018-11-06T06:53:39.835Z,9.33
2018-11-06T06:54:40.875Z,9.36
2018-11-06T06:55:39.897Z,9.36
2018-11-06T06:56:54.549Z,9.36
2018-11-06T06:57:39.935Z,9.43
2018-11-06T06:58:39.995Z,9.32
2018-11-06T06:59:39.943Z,9.39
2018-11-06T07:00:39.711Z,9.39
2018-11-06T07:01:39.978Z,9.46
2018-11-06T07:02:54.672Z,9.43
2018-11-06T07:03:40.031Z,9.54
2018-11-06T07:04:40.064Z,9.65
2018-11-06T07:05:39.810Z,9.6
2018-11-06T07:06:40.084Z,9.61
2018-11-06T07:07:40.087Z,9.57
2018-11-06T07:08:40.101Z,9.78
2018-11-06T07:09:40.154Z,9.75
2018-11-06T07:10:40.160Z,9.99
2018-11-06T07:11:40.189Z,9.97
2018-11-06T07:12:40.223Z,10.09
2018-11-06T07:13:54.871Z,10.17
2018-11-06T07:14:40.217Z,10.22
2018-11-06T07:15:40.252Z,10.23
2018-11-06T07:16:40.263Z,10.3
2018-11-06T07:17:40.301Z,10.47
2018-11-06T07:18:54.965Z,10.48
2018-11-06T07:19:40.358Z,10.53
2018-11-06T07:20:40.400Z,10.63
2018-11-06T07:21:40.105Z,10.73
2018-11-06T07:22:40.364Z,10.68
2018-11-06T07:23:40.419Z,10.79
2018-11-06T07:24:40.431Z,10.82
2018-11-06T07:26:40.454Z,10.91
2018-11-06T07:27:55.129Z,11
2018-11-06T07:28:40.625Z,11.04
2018-11-06T07:29:40.515Z,11.04
2018-11-06T07:30:40.025Z,11.17
2018-11-06T07:31:40.022Z,11.19
2018-11-06T07:32:40.303Z,11.24
2018-11-06T07:34:55.646Z,11.44
2018-11-06T07:35:41.533Z,11.46
2018-11-06T07:36:40.648Z,11.57
2018-11-06T07:37:40.430Z,11.61
2018-11-06T07:38:40.679Z,11.67
2018-11-06T07:39:40.711Z,11.61
2018-11-06T07:40:41.137Z,11.67
2018-11-06T07:41:40.769Z,11.7
2018-11-06T07:42:40.784Z,11.73
2018-11-06T07:43:40.526Z,11.8
2018-11-06T07:44:40.808Z,11.79
2018-11-06T07:45:55.489Z,11.9
2018-11-06T07:46:40.852Z,12.01
2018-11-06T07:47:40.854Z,12.02
2018-11-06T07:48:40.907Z,12.05
2018-11-06T07:49:40.966Z,12.14
2018-11-06T07:50:55.590Z,12.21
2018-11-06T07:51:40.962Z,12.21
2018-11-06T07:52:40.988Z,12.2
2018-11-06T07:53:41.009Z,12.31
2018-11-06T07:55:40.510Z,12.35
2018-11-06T07:57:41.095Z,12.49
2018-11-06T07:58:41.095Z,12.47
2018-11-06T07:59:41.130Z,12.54
2018-11-06T08:00:40.611Z,12.59
2018-11-06T08:01:41.167Z,12.5
2018-11-06T08:02:41.164Z,12.65
2018-11-06T08:03:40.956Z,12.68
2018-11-06T08:04:40.942Z,12.67
2018-11-06T08:05:55.898Z,12.74
2018-11-06T08:06:41.015Z,12.78
2018-11-06T08:07:41.269Z,12.89
2018-11-06T08:08:41.313Z,12.93
2018-11-06T08:10:41.071Z,12.93
2018-11-06T08:11:41.365Z,12.97
2018-11-06T08:13:41.421Z,13.17
2018-11-06T08:14:41.812Z,13.25
2018-11-06T08:15:41.456Z,13.2
2018-11-06T08:17:41.224Z,13.33
2018-11-06T08:18:41.519Z,13.36
2018-11-06T08:19:41.515Z,13.38
2018-11-06T08:20:41.836Z,13.46
2018-11-06T08:21:41.562Z,13.51
2018-11-06T08:22:41.601Z,13.59
2018-11-06T08:23:41.824Z,13.57
2018-11-06T08:24:41.356Z,13.46
2018-11-06T08:26:41.658Z,13.57
2018-11-06T08:27:41.551Z,13.59
2018-11-06T08:28:41.707Z,13.6
2018-11-06T08:29:41.480Z,13.62
2018-11-06T08:30:42.342Z,13.59
2018-11-06T08:31:42.826Z,13.62
2018-11-06T08:32:43.437Z,13.67
2018-11-06T08:33:41.836Z,13.67
2018-11-06T08:34:41.586Z,13.71
2018-11-06T08:35:41.843Z,13.77
2018-11-06T08:36:42.240Z,13.88
2018-11-06T08:37:56.582Z,13.78
2018-11-06T08:38:41.921Z,13.91
2018-11-06T08:39:41.961Z,13.88
2018-11-06T08:40:41.693Z,13.92
2018-11-06T08:41:42.004Z,13.92
2018-11-06T08:42:42.272Z,13.99
2018-11-06T08:43:42.047Z,14.07
2018-11-06T08:44:42.054Z,14.04
2018-11-06T08:45:41.798Z,14.06
2018-11-06T08:46:42.075Z,14.09
2018-11-06T08:47:42.124Z,14.02
2018-11-06T08:48:41.881Z,14.22
2018-11-06T08:49:42.198Z,14.14
2018-11-06T08:50:41.914Z,14.24
2018-11-06T08:51:42.217Z,14.15
2018-11-06T08:52:42.206Z,14.27
2018-11-06T08:53:56.890Z,14.33
2018-11-06T08:54:42.743Z,14.37
2018-11-06T08:55:42.303Z,14.37
2018-11-06T08:56:41.796Z,14.35
2018-11-06T08:57:56.974Z,14.43
2018-11-06T08:58:42.367Z,14.51
2018-11-06T08:59:42.356Z,14.51
2018-11-06T09:00:42.398Z,14.6
2018-11-06T09:01:42.137Z,14.58
2018-11-06T09:02:42.796Z,14.6
2018-11-06T09:04:42.468Z,14.7
2018-11-06T09:05:42.233Z,14.77
2018-11-06T09:06:42.249Z,14.69
2018-11-06T09:07:42.570Z,14.62
2018-11-06T09:08:42.655Z,14.6
2018-11-06T09:09:57.240Z,14.6
2018-11-06T09:10:42.611Z,14.69
2018-11-06T09:11:42.632Z,14.61
2018-11-06T09:12:42.666Z,14.64
2018-11-06T09:13:42.687Z,14.6
2018-11-06T09:14:42.679Z,14.7
2018-11-06T09:15:42.485Z,14.84
2018-11-06T09:16:42.459Z,14.78
2018-11-06T09:17:57.430Z,14.75
2018-11-06T09:18:42.503Z,14.78
2018-11-06T09:19:42.557Z,14.81
2018-11-06T09:20:42.835Z,14.89
2018-11-06T09:21:42.585Z,14.88
2018-11-06T09:22:42.867Z,14.86
2018-11-06T09:23:42.611Z,14.95
2018-11-06T09:24:42.923Z,14.96
2018-11-06T09:26:42.442Z,15.23
2018-11-06T09:27:42.722Z,15.31
2018-11-06T09:28:42.736Z,15.34
2018-11-06T09:29:43.002Z,15.29
2018-11-06T09:30:42.786Z,15.34
2018-11-06T09:31:43.084Z,15.47
2018-11-06T09:32:43.072Z,15.57
2018-11-06T09:33:43.130Z,15.5
2018-11-06T09:34:42.855Z,15.47
2018-11-06T09:35:43.001Z,15.44
2018-11-06T09:36:43.158Z,15.38
2018-11-06T09:37:42.943Z,15.46
2018-11-06T09:38:43.218Z,15.44
2018-11-06T09:39:43.244Z,15.46
2018-11-06T09:41:43.299Z,15.43
2018-11-06T09:42:57.954Z,15.43
2018-11-06T09:43:43.340Z,15.43
2018-11-06T09:44:43.377Z,15.41
2018-11-06T09:45:43.362Z,15.44
2018-11-06T09:46:43.202Z,15.47
2018-11-06T09:47:58.062Z,15.54
2018-11-06T09:48:43.460Z,15.53
2018-11-06T09:49:43.477Z,15.56
2018-11-06T09:50:43.233Z,15.56
2018-11-06T09:51:43.249Z,15.74
2018-11-06T09:53:43.528Z,15.76
2018-11-06T09:54:43.552Z,15.76
2018-11-06T09:55:43.340Z,15.84
2018-11-06T09:56:43.611Z,15.84
2018-11-06T09:57:43.754Z,15.86
2018-11-06T09:58:43.644Z,15.86
2018-11-06T09:59:43.717Z,15.94
2018-11-06T10:00:43.691Z,16.07
2018-11-06T10:01:43.711Z,16
2018-11-06T10:02:43.744Z,16.07
2018-11-06T10:03:43.520Z,16.08
2018-11-06T10:04:43.782Z,16.02
2018-11-06T10:05:43.570Z,16
2018-11-06T10:06:44.636Z,16
2018-11-06T10:07:44.152Z,16.01
2018-11-06T10:08:43.875Z,16.08
2018-11-06T10:09:43.920Z,16.11
2018-11-06T10:11:43.927Z,16.11
2018-11-06T10:12:58.638Z,16.12
2018-11-06T10:13:43.978Z,16.15
2018-11-06T10:14:44.027Z,16.2
2018-11-06T10:15:44.279Z,16.24
2018-11-06T10:16:44.071Z,16.28
2018-11-06T10:17:44.065Z,16.23
2018-11-06T10:18:43.841Z,16.24
2018-11-06T10:19:44.141Z,16.25
2018-11-06T10:20:44.128Z,16.17
2018-11-06T10:21:43.894Z,16.09
2018-11-06T10:22:58.851Z,16.02
2018-11-06T10:23:44.195Z,16.11
2018-11-06T10:24:43.992Z,16.12
2018-11-06T10:25:44.250Z,16.09
2018-11-06T10:26:44.288Z,16.2
2018-11-06T10:27:44.281Z,16.27
2018-11-06T10:28:58.974Z,16.21
2018-11-06T10:29:58.743Z,16.21
2018-11-06T10:30:44.501Z,16.27
2018-11-06T10:31:44.397Z,16.24
2018-11-06T10:33:44.170Z,16.41
2018-11-06T10:34:44.468Z,16.33
2018-11-06T10:35:44.228Z,16.3
2018-11-06T10:36:44.231Z,16.28
2018-11-06T10:37:44.516Z,16.39
2018-11-06T10:38:44.537Z,16.39
2018-11-06T10:39:44.319Z,16.39
2018-11-06T10:40:44.573Z,16.38
2018-11-06T10:41:44.622Z,16.43
2018-11-06T10:42:44.359Z,16.39
2018-11-06T10:43:44.831Z,16.43
2018-11-06T10:44:59.320Z,16.43
2018-11-06T10:45:44.679Z,16.39
2018-11-06T10:46:59.118Z,16.48
2018-11-06T10:47:44.727Z,16.58
2018-11-06T10:48:44.775Z,16.63
2018-11-06T10:49:44.791Z,16.68
2018-11-06T10:50:44.827Z,16.81
2018-11-06T10:51:44.616Z,16.64
2018-11-06T10:52:44.845Z,16.56
2018-11-06T10:53:44.889Z,16.57
2018-11-06T10:54:44.896Z,16.66
2018-11-06T10:55:44.933Z,16.64
2018-11-06T10:56:44.665Z,16.53
2018-11-06T10:57:44.978Z,16.67
2018-11-06T10:58:45.010Z,16.7
2018-11-06T10:59:45.015Z,16.73
2018-11-06T11:00:59.678Z,16.82
2018-11-06T11:01:44.796Z,16.81
2018-11-06T11:02:45.102Z,16.7
2018-11-06T11:03:45.114Z,16.71
2018-11-06T11:04:44.842Z,16.76
2018-11-06T11:05:45.157Z,16.75
2018-11-06T11:06:45.176Z,16.82
2018-11-06T11:07:44.663Z,16.83
2018-11-06T11:08:44.935Z,16.75
2018-11-06T11:09:45.205Z,16.85
2018-11-06T11:10:45.261Z,16.86
2018-11-06T11:11:45.005Z,16.83
2018-11-06T11:12:45.132Z,16.86
2018-11-06T11:13:45.328Z,16.71
2018-11-06T11:14:45.365Z,16.79
2018-11-06T11:16:00.011Z,16.81
2018-11-06T11:17:45.418Z,16.81
2018-11-06T11:18:45.170Z,16.91
2018-11-06T11:19:44.941Z,16.96
2018-11-06T11:20:45.455Z,16.94
2018-11-06T11:21:45.648Z,17.01
2018-11-06T11:22:45.659Z,16.97
2018-11-06T11:23:45.560Z,17.04
2018-11-06T11:24:45.540Z,17.11
2018-11-06T11:25:45.503Z,17.14
2018-11-06T11:26:45.610Z,17.19
2018-11-06T11:27:45.618Z,17.18
2018-11-06T11:28:45.148Z,17.16
2018-11-06T11:29:45.685Z,17.18
2018-11-06T11:30:45.682Z,17.14
2018-11-06T11:31:45.732Z,17.18
2018-11-06T11:32:45.739Z,17.18
2018-11-06T11:33:45.511Z,17.16
2018-11-06T11:35:45.548Z,17.15
2018-11-06T11:36:45.841Z,17.23
2018-11-06T11:39:45.874Z,17.21
2018-11-06T11:41:00.558Z,17.16
2018-11-06T11:41:45.951Z,17.19
2018-11-06T11:42:45.691Z,17.19
2018-11-06T11:44:00.643Z,17.22
2018-11-06T11:44:46.001Z,17.22
2018-11-06T11:46:46.032Z,17.15
2018-11-06T11:48:00.716Z,17.23
2018-11-06T11:48:46.108Z,17.28
2018-11-06T11:50:46.151Z,17.25
2018-11-06T11:51:46.173Z,17.26
2018-11-06T11:52:45.664Z,17.3
2018-11-06T11:53:46.189Z,17.3
2018-11-06T11:54:46.265Z,17.26
2018-11-06T11:55:46.239Z,17.41
2018-11-06T11:57:46.287Z,17.23
2018-11-06T11:58:46.068Z,17.26
2018-11-06T11:59:46.341Z,17.33
2018-11-06T12:00:46.379Z,17.44
2018-11-06T12:01:46.180Z,17.26
2018-11-06T12:02:46.427Z,17.26
2018-11-06T12:04:00.824Z,17.38
2018-11-06T12:04:46.176Z,17.58
2018-11-06T12:05:46.487Z,17.51
2018-11-06T12:06:46.238Z,17.51
2018-11-06T12:07:46.506Z,17.49
2018-11-06T12:08:46.554Z,17.51
2018-11-06T12:10:01.306Z,17.58
2018-11-06T12:10:46.598Z,17.55
2018-11-06T12:11:46.605Z,17.43
2018-11-06T12:12:46.640Z,17.4
2018-11-06T12:14:01.038Z,17.43
2018-11-06T12:15:01.060Z,17.52
2018-11-06T12:15:46.718Z,17.38
2018-11-06T12:16:46.453Z,17.54
2018-11-06T12:17:46.758Z,17.49
2018-11-06T12:18:46.752Z,17.52
2018-11-06T12:20:01.446Z,17.55
2018-11-06T12:20:46.791Z,17.44
2018-11-06T12:21:46.584Z,17.44
2018-11-06T12:23:01.552Z,17.52
2018-11-06T12:23:46.890Z,17.4
2018-11-06T12:24:47.487Z,17.43
2018-11-06T12:25:47.931Z,17.36
2018-11-06T12:26:46.929Z,17.44
2018-11-06T12:27:46.976Z,17.51
2018-11-06T12:29:01.657Z,17.58
2018-11-06T12:30:01.397Z,17.44
2018-11-06T12:30:46.786Z,17.46
2018-11-06T12:31:47.036Z,17.52
2018-11-06T12:32:47.309Z,17.38
2018-11-06T12:33:47.083Z,17.46
2018-11-06T12:34:46.875Z,17.44
2018-11-06T12:36:01.808Z,17.41
2018-11-06T12:37:01.980Z,17.4
2018-11-06T12:38:46.938Z,17.48
2018-11-06T12:39:47.220Z,17.4
2018-11-06T12:40:47.254Z,17.41
2018-11-06T12:41:47.282Z,17.43
2018-11-06T12:42:47.342Z,17.48
2018-11-06T12:43:47.522Z,17.49
2018-11-06T12:44:47.359Z,17.49
2018-11-06T12:45:47.350Z,17.44
2018-11-06T12:46:47.395Z,17.48
2018-11-06T12:47:47.398Z,17.59
2018-11-06T12:48:47.184Z,17.58
2018-11-06T12:49:47.444Z,17.41
2018-11-06T12:51:01.871Z,17.54
2018-11-06T12:51:47.488Z,17.44
2018-11-06T12:52:47.588Z,17.52
2018-11-06T12:53:47.536Z,17.44
2018-11-06T12:54:47.581Z,17.41
2018-11-06T12:55:47.572Z,17.52
2018-11-06T12:56:47.610Z,17.51
2018-11-06T12:57:47.617Z,17.37
2018-11-06T12:58:47.668Z,17.4
2018-11-06T12:59:47.692Z,17.48
2018-11-06T13:00:47.710Z,17.43
2018-11-06T13:01:47.456Z,17.41
2018-11-06T13:02:47.476Z,17.4
2018-11-06T13:03:47.520Z,17.38
2018-11-06T13:05:02.451Z,17.37
2018-11-06T13:05:47.834Z,17.26
2018-11-06T13:06:47.826Z,17.23
2018-11-06T13:07:47.880Z,17.36
2018-11-06T13:08:47.607Z,17.25
2018-11-06T13:10:02.659Z,17.34
2018-11-06T13:11:48.032Z,17.3
2018-11-06T13:12:47.719Z,17.3
2018-11-06T13:14:02.658Z,17.3
2018-11-06T13:14:48.018Z,17.25
2018-11-06T13:15:48.067Z,17.31
2018-11-06T13:16:48.192Z,17.31
2018-11-06T13:17:48.168Z,17.28
2018-11-06T13:19:02.763Z,17.25
2018-11-06T13:20:47.887Z,17.31
2018-11-06T13:21:47.897Z,17.26
2018-11-06T13:23:02.852Z,17.28
2018-11-06T13:23:48.227Z,17.3
2018-11-06T13:24:48.224Z,17.26
2018-11-06T13:25:48.702Z,17.25
2018-11-06T13:26:48.265Z,17.26
2018-11-06T13:27:48.317Z,17.23
2018-11-06T13:29:02.974Z,17.18
2018-11-06T13:29:48.368Z,17.21
2018-11-06T13:30:48.715Z,17.3
2018-11-06T13:31:48.400Z,17.21
2018-11-06T13:32:48.397Z,17.25
2018-11-06T13:33:48.420Z,17.22
2018-11-06T13:35:03.120Z,17.18
2018-11-06T13:35:48.472Z,17.19
2018-11-06T13:36:48.517Z,17.15
2018-11-06T13:37:48.520Z,17.15
2018-11-06T13:39:03.209Z,17.18
2018-11-06T13:39:48.552Z,17.01
2018-11-06T13:40:48.320Z,17.07
2018-11-06T13:41:48.360Z,17.14
2018-11-06T13:42:49.617Z,17.18
2018-11-06T13:43:49.127Z,17.08
2018-11-06T13:44:50.380Z,17.11
2018-11-06T13:45:49.642Z,17.07
2018-11-06T13:46:48.480Z,17.08
2018-11-06T13:47:48.768Z,17.15
2018-11-06T13:49:03.433Z,17.15
2018-11-06T13:49:48.517Z,17.06
2018-11-06T13:50:48.804Z,17.06
2018-11-06T13:51:48.846Z,17.07